sensor_id;sensor_type;location;lat;lon;timestamp;P1;durP1;ratioP1;P2;durP2;ratioP2
55362;SDS011;41244;49.242;9.060;2023-05-10T00:02:12;4.25;;;1.90;;
55362;SDS011;41244;49.242;9.060;2023-05-10T00:04:38;2.00;;;1.90;;
55362;SDS011;41244;49.242;9.060;2023-05-10T00:07:03;2.08;;;1.98;;
55362;SDS011;41244;49.242;9.060;2023-05-10T00:09:29;2.08;;;1.98;;
55362;SDS011;41244;49.242;9.060;2023-05-10T00:11:55;2.33;;;2.13;;
55362;SDS011;41244;49.242;9.060;2023-05-10T00:14:23;2.05;;;1.95;;
55362;SDS011;41244;49.242;9.060;2023-05-10T00:16:49;4.80;;;2.25;;
55362;SDS011;41244;49.242;9.060;2023-05-10T00:19:14;1.90;;;1.80;;
55362;SDS011;41244;49.242;9.060;2023-05-10T00:21:40;2.13;;;1.95;;
55362;SDS011;41244;49.242;9.060;2023-05-10T00:24:06;3.15;;;2.10;;
55362;SDS011;41244;49.242;9.060;2023-05-10T00:26:32;2.80;;;1.90;;
55362;SDS011;41244;49.242;9.060;2023-05-10T00:28:57;2.45;;;2.10;;
55362;SDS011;41244;49.242;9.060;2023-05-10T00:31:23;2.10;;;2.00;;
55362;SDS011;41244;49.242;9.060;2023-05-10T00:33:49;2.25;;;2.05;;
55362;SDS011;41244;49.242;9.060;2023-05-10T00:36:15;2.65;;;2.17;;
55362;SDS011;41244;49.242;9.060;2023-05-10T00:38:40;4.47;;;2.15;;
55362;SDS011;41244;49.242;9.060;2023-05-10T00:41:06;2.17;;;1.98;;
55362;SDS011;41244;49.242;9.060;2023-05-10T00:43:32;2.20;;;2.00;;
55362;SDS011;41244;49.242;9.060;2023-05-10T00:45:58;2.00;;;1.90;;
55362;SDS011;41244;49.242;9.060;2023-05-10T00:48:24;3.70;;;2.33;;
55362;SDS011;41244;49.242;9.060;2023-05-10T00:50:50;8.02;;;2.40;;
55362;SDS011;41244;49.242;9.060;2023-05-10T00:53:16;2.30;;;2.10;;
55362;SDS011;41244;49.242;9.060;2023-05-10T00:55:42;2.80;;;2.10;;
55362;SDS011;41244;49.242;9.060;2023-05-10T00:58:08;3.05;;;2.00;;
55362;SDS011;41244;49.242;9.060;2023-05-10T01:00:34;2.17;;;2.08;;
55362;SDS011;41244;49.242;9.060;2023-05-10T01:03:00;2.20;;;2.10;;
55362;SDS011;41244;49.242;9.060;2023-05-10T01:05:26;2.42;;;2.20;;
55362;SDS011;41244;49.242;9.060;2023-05-10T01:07:52;2.30;;;2.20;;
55362;SDS011;41244;49.242;9.060;2023-05-10T01:10:18;3.05;;;2.30;;
55362;SDS011;41244;49.242;9.060;2023-05-10T01:12:45;2.33;;;2.13;;
55362;SDS011;41244;49.242;9.060;2023-05-10T01:15:12;2.30;;;2.13;;
55362;SDS011;41244;49.242;9.060;2023-05-10T01:17:39;2.78;;;2.20;;
55362;SDS011;41244;49.242;9.060;2023-05-10T01:20:07;3.38;;;2.35;;
55362;SDS011;41244;49.242;9.060;2023-05-10T01:34:59;3.58;;;3.17;;
55362;SDS011;41244;49.242;9.060;2023-05-10T01:37:36;3.10;;;2.80;;
55362;SDS011;41244;49.242;9.060;2023-05-10T01:40:23;3.55;;;2.88;;
55362;SDS011;41244;49.242;9.060;2023-05-10T01:43:17;3.20;;;2.95;;
55362;SDS011;41244;49.242;9.060;2023-05-10T01:46:01;3.60;;;3.30;;
55362;SDS011;41244;49.242;9.060;2023-05-10T01:48:35;3.70;;;3.40;;
55362;SDS011;41244;49.242;9.060;2023-05-10T01:51:19;4.30;;;3.20;;
55362;SDS011;41244;49.242;9.060;2023-05-10T01:53:49;3.47;;;3.17;;
55362;SDS011;41244;49.242;9.060;2023-05-10T01:56:15;4.47;;;3.20;;
55362;SDS011;41244;49.242;9.060;2023-05-10T01:58:42;3.80;;;3.40;;
55362;SDS011;41244;49.242;9.060;2023-05-10T02:01:10;3.75;;;3.45;;
55362;SDS011;41244;49.242;9.060;2023-05-10T02:03:36;6.00;;;3.92;;
55362;SDS011;41244;49.242;9.060;2023-05-10T02:06:04;4.43;;;3.92;;
55362;SDS011;41244;49.242;9.060;2023-05-10T02:08:30;4.30;;;3.97;;
55362;SDS011;41244;49.242;9.060;2023-05-10T02:10:56;4.28;;;3.88;;
55362;SDS011;41244;49.242;9.060;2023-05-10T02:13:23;4.28;;;3.97;;
55362;SDS011;41244;49.242;9.060;2023-05-10T02:15:49;6.07;;;4.35;;
55362;SDS011;41244;49.242;9.060;2023-05-10T02:18:16;4.32;;;3.92;;
55362;SDS011;41244;49.242;9.060;2023-05-10T02:20:44;5.00;;;3.72;;
55362;SDS011;41244;49.242;9.060;2023-05-10T02:23:11;4.05;;;3.75;;
55362;SDS011;41244;49.242;9.060;2023-05-10T02:25:38;4.47;;;4.00;;
55362;SDS011;41244;49.242;9.060;2023-05-10T02:28:05;4.63;;;4.15;;
55362;SDS011;41244;49.242;9.060;2023-05-10T02:30:32;4.25;;;3.95;;
55362;SDS011;41244;49.242;9.060;2023-05-10T02:32:59;4.63;;;4.03;;
55362;SDS011;41244;49.242;9.060;2023-05-10T02:35:26;4.60;;;4.20;;
55362;SDS011;41244;49.242;9.060;2023-05-10T02:37:52;4.38;;;4.07;;
55362;SDS011;41244;49.242;9.060;2023-05-10T02:40:18;4.10;;;3.80;;
55362;SDS011;41244;49.242;9.060;2023-05-10T02:42:45;4.43;;;3.70;;
55362;SDS011;41244;49.242;9.060;2023-05-10T02:45:15;4.10;;;3.80;;
55362;SDS011;41244;49.242;9.060;2023-05-10T02:47:46;4.55;;;4.15;;
55362;SDS011;41244;49.242;9.060;2023-05-10T02:50:12;5.10;;;4.03;;
55362;SDS011;41244;49.242;9.060;2023-05-10T02:52:46;5.18;;;4.50;;
55362;SDS011;41244;49.242;9.060;2023-05-10T02:55:14;5.05;;;4.60;;
55362;SDS011;41244;49.242;9.060;2023-05-10T02:57:43;5.45;;;4.97;;
55362;SDS011;41244;49.242;9.060;2023-05-10T03:00:19;5.50;;;5.00;;
55362;SDS011;41244;49.242;9.060;2023-05-10T03:02:45;5.55;;;4.97;;
55362;SDS011;41244;49.242;9.060;2023-05-10T03:05:11;6.28;;;5.68;;
55362;SDS011;41244;49.242;9.060;2023-05-10T03:07:37;7.05;;;5.43;;
55362;SDS011;41244;49.242;9.060;2023-05-10T03:10:03;5.80;;;5.20;;
55362;SDS011;41244;49.242;9.060;2023-05-10T03:21:10;5.43;;;5.03;;
55362;SDS011;41244;49.242;9.060;2023-05-10T03:23:41;5.60;;;4.70;;
55362;SDS011;41244;49.242;9.060;2023-05-10T03:28:51;5.15;;;4.75;;
55362;SDS011;41244;49.242;9.060;2023-05-10T03:31:18;5.35;;;4.93;;
55362;SDS011;41244;49.242;9.060;2023-05-10T03:33:50;5.53;;;5.00;;
55362;SDS011;41244;49.242;9.060;2023-05-10T03:36:17;6.88;;;5.20;;
55362;SDS011;41244;49.242;9.060;2023-05-10T03:38:43;5.82;;;5.32;;
55362;SDS011;41244;49.242;9.060;2023-05-10T03:41:09;6.05;;;5.55;;
55362;SDS011;41244;49.242;9.060;2023-05-10T03:43:35;6.97;;;5.75;;
55362;SDS011;41244;49.242;9.060;2023-05-10T03:46:02;6.80;;;5.95;;
55362;SDS011;41244;49.242;9.060;2023-05-10T03:48:28;7.07;;;5.65;;
55362;SDS011;41244;49.242;9.060;2023-05-10T03:50:55;6.75;;;6.25;;
55362;SDS011;41244;49.242;9.060;2023-05-10T03:53:20;9.80;;;6.45;;
55362;SDS011;41244;49.242;9.060;2023-05-10T03:55:48;7.05;;;6.50;;
55362;SDS011;41244;49.242;9.060;2023-05-10T03:58:14;7.28;;;6.57;;
55362;SDS011;41244;49.242;9.060;2023-05-10T04:00:40;7.40;;;6.80;;
55362;SDS011;41244;49.242;9.060;2023-05-10T04:03:09;7.60;;;7.00;;
55362;SDS011;41244;49.242;9.060;2023-05-10T04:05:35;8.18;;;7.40;;
55362;SDS011;41244;49.242;9.060;2023-05-10T04:08:01;7.30;;;6.70;;
55362;SDS011;41244;49.242;9.060;2023-05-10T04:10:27;7.65;;;7.05;;
55362;SDS011;41244;49.242;9.060;2023-05-10T04:12:53;6.95;;;6.45;;
55362;SDS011;41244;49.242;9.060;2023-05-10T04:15:19;7.53;;;6.40;;
55362;SDS011;41244;49.242;9.060;2023-05-10T04:17:45;7.60;;;6.93;;
55362;SDS011;41244;49.242;9.060;2023-05-10T04:20:11;6.72;;;6.05;;
55362;SDS011;41244;49.242;9.060;2023-05-10T04:22:37;7.70;;;5.90;;
55362;SDS011;41244;49.242;9.060;2023-05-10T04:25:03;8.43;;;6.20;;
55362;SDS011;41244;49.242;9.060;2023-05-10T04:27:29;7.07;;;6.28;;
55362;SDS011;41244;49.242;9.060;2023-05-10T04:29:56;9.05;;;6.35;;
55362;SDS011;41244;49.242;9.060;2023-05-10T04:32:22;8.20;;;6.35;;
55362;SDS011;41244;49.242;9.060;2023-05-10T04:34:48;6.57;;;5.97;;
55362;SDS011;41244;49.242;9.060;2023-05-10T04:37:15;6.60;;;6.05;;
55362;SDS011;41244;49.242;9.060;2023-05-10T04:39:41;6.63;;;5.93;;
55362;SDS011;41244;49.242;9.060;2023-05-10T04:42:07;7.32;;;5.95;;
55362;SDS011;41244;49.242;9.060;2023-05-10T04:44:32;6.85;;;6.22;;
55362;SDS011;41244;49.242;9.060;2023-05-10T04:46:58;10.27;;;6.47;;
55362;SDS011;41244;49.242;9.060;2023-05-10T04:49:24;6.90;;;6.20;;
55362;SDS011;41244;49.242;9.060;2023-05-10T04:51:50;7.72;;;6.28;;
55362;SDS011;41244;49.242;9.060;2023-05-10T04:54:15;8.20;;;6.78;;
55362;SDS011;41244;49.242;9.060;2023-05-10T04:56:41;8.68;;;7.00;;
55362;SDS011;41244;49.242;9.060;2023-05-10T04:59:07;7.88;;;7.22;;
55362;SDS011;41244;49.242;9.060;2023-05-10T05:01:33;8.90;;;7.15;;
55362;SDS011;41244;49.242;9.060;2023-05-10T05:03:58;7.32;;;6.75;;
55362;SDS011;41244;49.242;9.060;2023-05-10T05:06:24;7.22;;;6.63;;
55362;SDS011;41244;49.242;9.060;2023-05-10T05:08:52;7.00;;;6.47;;
55362;SDS011;41244;49.242;9.060;2023-05-10T05:11:17;7.88;;;6.85;;
55362;SDS011;41244;49.242;9.060;2023-05-10T05:13:43;8.05;;;7.38;;
55362;SDS011;41244;49.242;9.060;2023-05-10T05:16:09;8.48;;;7.68;;
55362;SDS011;41244;49.242;9.060;2023-05-10T05:18:36;8.50;;;7.70;;
55362;SDS011;41244;49.242;9.060;2023-05-10T05:21:01;8.57;;;7.78;;
55362;SDS011;41244;49.242;9.060;2023-05-10T05:23:27;8.48;;;7.78;;
55362;SDS011;41244;49.242;9.060;2023-05-10T05:25:53;9.52;;;8.52;;
55362;SDS011;41244;49.242;9.060;2023-05-10T05:28:22;8.43;;;7.63;;
55362;SDS011;41244;49.242;9.060;2023-05-10T05:30:48;9.02;;;8.15;;
55362;SDS011;41244;49.242;9.060;2023-05-10T05:33:14;9.75;;;8.95;;
55362;SDS011;41244;49.242;9.060;2023-05-10T05:35:42;11.82;;;8.57;;
55362;SDS011;41244;49.242;9.060;2023-05-10T05:38:12;8.30;;;7.60;;
55362;SDS011;41244;49.242;9.060;2023-05-10T05:40:38;8.00;;;7.20;;
55362;SDS011;41244;49.242;9.060;2023-05-10T05:43:03;7.93;;;7.22;;
55362;SDS011;41244;49.242;9.060;2023-05-10T05:45:29;7.38;;;6.78;;
55362;SDS011;41244;49.242;9.060;2023-05-10T05:47:55;7.75;;;7.15;;
55362;SDS011;41244;49.242;9.060;2023-05-10T05:50:21;8.32;;;7.55;;
55362;SDS011;41244;49.242;9.060;2023-05-10T05:52:46;10.05;;;7.20;;
55362;SDS011;41244;49.242;9.060;2023-05-10T05:55:12;8.48;;;7.53;;
55362;SDS011;41244;49.242;9.060;2023-05-10T05:57:38;8.07;;;7.38;;
55362;SDS011;41244;49.242;9.060;2023-05-10T06:00:04;8.05;;;7.25;;
55362;SDS011;41244;49.242;9.060;2023-05-10T06:02:30;7.82;;;7.18;;
55362;SDS011;41244;49.242;9.060;2023-05-10T06:04:56;9.02;;;7.38;;
55362;SDS011;41244;49.242;9.060;2023-05-10T06:07:22;8.80;;;7.90;;
55362;SDS011;41244;49.242;9.060;2023-05-10T06:09:48;24.33;;;18.80;;
55362;SDS011;41244;49.242;9.060;2023-05-10T06:12:13;8.20;;;7.38;;
55362;SDS011;41244;49.242;9.060;2023-05-10T06:14:39;8.30;;;7.32;;
55362;SDS011;41244;49.242;9.060;2023-05-10T06:17:05;7.63;;;6.82;;
55362;SDS011;41244;49.242;9.060;2023-05-10T06:19:31;7.00;;;6.50;;
55362;SDS011;41244;49.242;9.060;2023-05-10T06:21:57;8.00;;;7.22;;
55362;SDS011;41244;49.242;9.060;2023-05-10T06:24:23;7.93;;;7.13;;
55362;SDS011;41244;49.242;9.060;2023-05-10T06:26:49;10.20;;;7.13;;
55362;SDS011;41244;49.242;9.060;2023-05-10T06:29:15;10.35;;;7.47;;
55362;SDS011;41244;49.242;9.060;2023-05-10T06:31:41;7.78;;;6.10;;
55362;SDS011;41244;49.242;9.060;2023-05-10T06:34:06;6.63;;;6.03;;
55362;SDS011;41244;49.242;9.060;2023-05-10T06:36:33;6.65;;;6.00;;
55362;SDS011;41244;49.242;9.060;2023-05-10T06:38:59;6.72;;;4.90;;
55362;SDS011;41244;49.242;9.060;2023-05-10T06:41:24;5.68;;;5.18;;
55362;SDS011;41244;49.242;9.060;2023-05-10T06:43:50;6.28;;;4.93;;
55362;SDS011;41244;49.242;9.060;2023-05-10T06:46:16;6.32;;;5.07;;
55362;SDS011;41244;49.242;9.060;2023-05-10T06:48:42;6.20;;;5.20;;
55362;SDS011;41244;49.242;9.060;2023-05-10T06:51:07;6.85;;;4.95;;
55362;SDS011;41244;49.242;9.060;2023-05-10T06:53:33;5.13;;;4.72;;
55362;SDS011;41244;49.242;9.060;2023-05-10T06:55:59;5.80;;;5.28;;
55362;SDS011;41244;49.242;9.060;2023-05-10T06:58:24;5.13;;;4.70;;
55362;SDS011;41244;49.242;9.060;2023-05-10T07:00:50;5.28;;;4.75;;
55362;SDS011;41244;49.242;9.060;2023-05-10T07:03:16;5.50;;;5.00;;
55362;SDS011;41244;49.242;9.060;2023-05-10T07:05:42;5.70;;;4.75;;
55362;SDS011;41244;49.242;9.060;2023-05-10T07:08:07;5.40;;;5.00;;
55362;SDS011;41244;49.242;9.060;2023-05-10T07:10:33;6.38;;;4.70;;
55362;SDS011;41244;49.242;9.060;2023-05-10T07:12:59;5.43;;;4.93;;
55362;SDS011;41244;49.242;9.060;2023-05-10T07:15:26;5.82;;;5.22;;
55362;SDS011;41244;49.242;9.060;2023-05-10T07:17:52;5.38;;;4.65;;
55362;SDS011;41244;49.242;9.060;2023-05-10T07:20:18;8.20;;;4.90;;
55362;SDS011;41244;49.242;9.060;2023-05-10T07:22:44;5.28;;;4.78;;
55362;SDS011;41244;49.242;9.060;2023-05-10T07:25:10;5.47;;;4.97;;
55362;SDS011;41244;49.242;9.060;2023-05-10T07:27:35;6.13;;;4.75;;
55362;SDS011;41244;49.242;9.060;2023-05-10T07:30:01;8.25;;;5.78;;
55362;SDS011;41244;49.242;9.060;2023-05-10T07:32:27;7.97;;;6.13;;
55362;SDS011;41244;49.242;9.060;2023-05-10T07:34:53;5.22;;;4.72;;
55362;SDS011;41244;49.242;9.060;2023-05-10T07:37:19;6.05;;;5.47;;
55362;SDS011;41244;49.242;9.060;2023-05-10T07:39:44;5.22;;;4.75;;
55362;SDS011;41244;49.242;9.060;2023-05-10T07:42:10;7.32;;;5.43;;
55362;SDS011;41244;49.242;9.060;2023-05-10T07:44:36;5.30;;;4.70;;
55362;SDS011;41244;49.242;9.060;2023-05-10T07:47:02;4.70;;;4.30;;
55362;SDS011;41244;49.242;9.060;2023-05-10T07:49:28;5.85;;;4.85;;
55362;SDS011;41244;49.242;9.060;2023-05-10T07:51:53;6.72;;;4.75;;
55362;SDS011;41244;49.242;9.060;2023-05-10T07:54:19;4.72;;;4.30;;
55362;SDS011;41244;49.242;9.060;2023-05-10T07:56:45;4.57;;;4.00;;
55362;SDS011;41244;49.242;9.060;2023-05-10T07:59:15;7.32;;;4.00;;
55362;SDS011;41244;49.242;9.060;2023-05-10T08:01:42;4.30;;;3.90;;
55362;SDS011;41244;49.242;9.060;2023-05-10T08:04:08;5.15;;;4.53;;
55362;SDS011;41244;49.242;9.060;2023-05-10T08:06:34;3.80;;;3.33;;
55362;SDS011;41244;49.242;9.060;2023-05-10T08:08:59;4.03;;;3.60;;
55362;SDS011;41244;49.242;9.060;2023-05-10T08:11:25;3.40;;;3.10;;
55362;SDS011;41244;49.242;9.060;2023-05-10T08:13:52;4.68;;;4.28;;
55362;SDS011;41244;49.242;9.060;2023-05-10T08:16:19;3.80;;;3.50;;
55362;SDS011;41244;49.242;9.060;2023-05-10T08:18:45;4.47;;;3.13;;
55362;SDS011;41244;49.242;9.060;2023-05-10T08:21:12;3.63;;;3.15;;
55362;SDS011;41244;49.242;9.060;2023-05-10T08:23:38;5.32;;;3.50;;
55362;SDS011;41244;49.242;9.060;2023-05-10T08:26:04;3.45;;;3.15;;
55362;SDS011;41244;49.242;9.060;2023-05-10T08:28:31;4.65;;;3.20;;
55362;SDS011;41244;49.242;9.060;2023-05-10T08:30:57;3.47;;;3.13;;
55362;SDS011;41244;49.242;9.060;2023-05-10T08:33:23;3.45;;;3.13;;
55362;SDS011;41244;49.242;9.060;2023-05-10T08:35:48;4.45;;;3.78;;
55362;SDS011;41244;49.242;9.060;2023-05-10T08:38:14;5.57;;;3.78;;
55362;SDS011;41244;49.242;9.060;2023-05-10T08:40:41;3.30;;;3.10;;
55362;SDS011;41244;49.242;9.060;2023-05-10T08:43:09;3.13;;;2.83;;
55362;SDS011;41244;49.242;9.060;2023-05-10T08:45:38;4.63;;;3.20;;
55362;SDS011;41244;49.242;9.060;2023-05-10T08:48:06;3.58;;;2.78;;
55362;SDS011;41244;49.242;9.060;2023-05-10T08:50:35;6.57;;;3.55;;
55362;SDS011;41244;49.242;9.060;2023-05-10T08:53:04;14.30;;;9.63;;
55362;SDS011;41244;49.242;9.060;2023-05-10T08:55:33;6.25;;;4.80;;
55362;SDS011;41244;49.242;9.060;2023-05-10T08:58:01;5.43;;;3.60;;
55362;SDS011;41244;49.242;9.060;2023-05-10T09:00:28;6.13;;;4.20;;
55362;SDS011;41244;49.242;9.060;2023-05-10T09:02:54;4.50;;;3.10;;
55362;SDS011;41244;49.242;9.060;2023-05-10T09:05:20;2.65;;;2.42;;
55362;SDS011;41244;49.242;9.060;2023-05-10T09:07:45;2.78;;;2.58;;
55362;SDS011;41244;49.242;9.060;2023-05-10T09:10:11;3.88;;;2.50;;
55362;SDS011;41244;49.242;9.060;2023-05-10T09:12:38;4.00;;;3.00;;
55362;SDS011;41244;49.242;9.060;2023-05-10T09:15:05;2.58;;;2.30;;
55362;SDS011;41244;49.242;9.060;2023-05-10T09:17:32;3.03;;;2.30;;
55362;SDS011;41244;49.242;9.060;2023-05-10T09:19:58;4.28;;;2.38;;
55362;SDS011;41244;49.242;9.060;2023-05-10T09:22:25;2.75;;;2.20;;
55362;SDS011;41244;49.242;9.060;2023-05-10T09:27:49;2.40;;;2.20;;
55362;SDS011;41244;49.242;9.060;2023-05-10T09:30:16;2.80;;;2.38;;
55362;SDS011;41244;49.242;9.060;2023-05-10T09:33:03;2.50;;;2.30;;
55362;SDS011;41244;49.242;9.060;2023-05-10T09:35:30;2.55;;;2.38;;
55362;SDS011;41244;49.242;9.060;2023-05-10T09:38:01;2.22;;;2.13;;
55362;SDS011;41244;49.242;9.060;2023-05-10T09:40:29;3.65;;;2.42;;
55362;SDS011;41244;49.242;9.060;2023-05-10T09:42:57;2.22;;;2.10;;
55362;SDS011;41244;49.242;9.060;2023-05-10T09:45:24;2.40;;;2.20;;
55362;SDS011;41244;49.242;9.060;2023-05-10T09:47:52;2.35;;;2.25;;
55362;SDS011;41244;49.242;9.060;2023-05-10T09:50:19;4.10;;;2.42;;
55362;SDS011;41244;49.242;9.060;2023-05-10T09:55:14;2.22;;;2.10;;
55362;SDS011;41244;49.242;9.060;2023-05-10T09:57:40;2.55;;;2.40;;
55362;SDS011;41244;49.242;9.060;2023-05-10T10:00:06;2.53;;;2.20;;
55362;SDS011;41244;49.242;9.060;2023-05-10T10:02:35;3.08;;;2.15;;
55362;SDS011;41244;49.242;9.060;2023-05-10T10:05:01;2.47;;;2.25;;
55362;SDS011;41244;49.242;9.060;2023-05-10T10:07:28;2.47;;;2.10;;
55362;SDS011;41244;49.242;9.060;2023-05-10T10:09:54;2.05;;;1.92;;
55362;SDS011;41244;49.242;9.060;2023-05-10T10:12:20;3.05;;;2.00;;
55362;SDS011;41244;49.242;9.060;2023-05-10T10:14:46;2.78;;;2.00;;
55362;SDS011;41244;49.242;9.060;2023-05-10T10:17:15;5.22;;;2.20;;
55362;SDS011;41244;49.242;9.060;2023-05-10T10:19:42;2.33;;;2.13;;
55362;SDS011;41244;49.242;9.060;2023-05-10T10:22:08;2.58;;;2.38;;
55362;SDS011;41244;49.242;9.060;2023-05-10T10:24:36;2.90;;;2.20;;
55362;SDS011;41244;49.242;9.060;2023-05-10T10:35:55;10.85;;;7.45;;
55362;SDS011;41244;49.242;9.060;2023-05-10T10:38:24;7.10;;;5.25;;
55362;SDS011;41244;49.242;9.060;2023-05-10T10:41:01;2.22;;;2.10;;
55362;SDS011;41244;49.242;9.060;2023-05-10T10:43:31;2.30;;;2.10;;
55362;SDS011;41244;49.242;9.060;2023-05-10T10:46:09;3.33;;;2.40;;
55362;SDS011;41244;49.242;9.060;2023-05-10T10:49:08;2.85;;;2.50;;
55362;SDS011;41244;49.242;9.060;2023-05-10T10:51:38;3.10;;;2.63;;
55362;SDS011;41244;49.242;9.060;2023-05-10T10:54:10;2.92;;;2.25;;
55362;SDS011;41244;49.242;9.060;2023-05-10T10:56:36;2.75;;;2.47;;
55362;SDS011;41244;49.242;9.060;2023-05-10T10:59:02;2.28;;;2.17;;
55362;SDS011;41244;49.242;9.060;2023-05-10T11:01:34;4.63;;;2.40;;
55362;SDS011;41244;49.242;9.060;2023-05-10T11:06:30;2.00;;;1.90;;
55362;SDS011;41244;49.242;9.060;2023-05-10T11:08:59;2.60;;;2.40;;
55362;SDS011;41244;49.242;9.060;2023-05-10T11:11:30;8.25;;;2.60;;
55362;SDS011;41244;49.242;9.060;2023-05-10T11:13:56;5.15;;;2.15;;
55362;SDS011;41244;49.242;9.060;2023-05-10T11:16:29;3.72;;;2.13;;
55362;SDS011;41244;49.242;9.060;2023-05-10T11:19:13;2.30;;;2.10;;
55362;SDS011;41244;49.242;9.060;2023-05-10T11:21:49;3.73;;;2.70;;
55362;SDS011;41244;49.242;9.060;2023-05-10T11:24:38;2.78;;;2.10;;
55362;SDS011;41244;49.242;9.060;2023-05-10T11:27:05;2.10;;;2.00;;
55362;SDS011;41244;49.242;9.060;2023-05-10T11:29:31;2.00;;;1.90;;
55362;SDS011;41244;49.242;9.060;2023-05-10T11:31:59;2.15;;;2.05;;
55362;SDS011;41244;49.242;9.060;2023-05-10T11:34:34;4.40;;;2.10;;
55362;SDS011;41244;49.242;9.060;2023-05-10T11:37:00;2.60;;;2.30;;
55362;SDS011;41244;49.242;9.060;2023-05-10T11:39:26;5.60;;;2.30;;
55362;SDS011;41244;49.242;9.060;2023-05-10T11:41:56;2.33;;;2.22;;
55362;SDS011;41244;49.242;9.060;2023-05-10T11:44:23;4.05;;;2.40;;
55362;SDS011;41244;49.242;9.060;2023-05-10T11:46:53;4.20;;;2.22;;
55362;SDS011;41244;49.242;9.060;2023-05-10T11:49:19;2.60;;;2.00;;
55362;SDS011;41244;49.242;9.060;2023-05-10T11:51:46;1.92;;;1.80;;
55362;SDS011;41244;49.242;9.060;2023-05-10T11:54:12;4.93;;;2.28;;
55362;SDS011;41244;49.242;9.060;2023-05-10T11:56:38;2.33;;;2.17;;
55362;SDS011;41244;49.242;9.060;2023-05-10T11:59:05;3.03;;;2.83;;
55362;SDS011;41244;49.242;9.060;2023-05-10T12:01:31;6.47;;;4.40;;
55362;SDS011;41244;49.242;9.060;2023-05-10T12:03:57;3.90;;;2.50;;
55362;SDS011;41244;49.242;9.060;2023-05-10T12:06:28;5.63;;;2.50;;
55362;SDS011;41244;49.242;9.060;2023-05-10T12:08:56;2.75;;;2.22;;
55362;SDS011;41244;49.242;9.060;2023-05-10T12:11:26;2.80;;;2.40;;
55362;SDS011;41244;49.242;9.060;2023-05-10T12:13:53;3.88;;;2.60;;
55362;SDS011;41244;49.242;9.060;2023-05-10T12:16:21;2.83;;;2.40;;
55362;SDS011;41244;49.242;9.060;2023-05-10T12:18:50;2.55;;;2.30;;
55362;SDS011;41244;49.242;9.060;2023-05-10T12:21:17;2.30;;;2.10;;
55362;SDS011;41244;49.242;9.060;2023-05-10T12:23:45;2.53;;;2.30;;
55362;SDS011;41244;49.242;9.060;2023-05-10T12:26:12;3.03;;;2.67;;
55362;SDS011;41244;49.242;9.060;2023-05-10T12:28:37;4.18;;;3.00;;
55362;SDS011;41244;49.242;9.060;2023-05-10T12:31:06;8.40;;;2.70;;
55362;SDS011;41244;49.242;9.060;2023-05-10T12:33:36;3.88;;;2.40;;
55362;SDS011;41244;49.242;9.060;2023-05-10T12:36:08;6.60;;;2.60;;
55362;SDS011;41244;49.242;9.060;2023-05-10T12:38:42;3.03;;;2.33;;
55362;SDS011;41244;49.242;9.060;2023-05-10T12:41:10;2.60;;;2.20;;
55362;SDS011;41244;49.242;9.060;2023-05-10T12:43:38;4.35;;;2.33;;
55362;SDS011;41244;49.242;9.060;2023-05-10T12:46:05;5.75;;;2.85;;
55362;SDS011;41244;49.242;9.060;2023-05-10T12:48:34;3.47;;;2.50;;
55362;SDS011;41244;49.242;9.060;2023-05-10T12:51:01;5.28;;;2.38;;
55362;SDS011;41244;49.242;9.060;2023-05-10T12:53:28;3.78;;;2.10;;
55362;SDS011;41244;49.242;9.060;2023-05-10T12:55:53;6.35;;;1.98;;
55362;SDS011;41244;49.242;9.060;2023-05-10T12:58:19;5.97;;;2.55;;
55362;SDS011;41244;49.242;9.060;2023-05-10T13:00:45;4.38;;;2.15;;
55362;SDS011;41244;49.242;9.060;2023-05-10T13:03:11;2.85;;;2.35;;
55362;SDS011;41244;49.242;9.060;2023-05-10T13:05:37;4.00;;;2.28;;
55362;SDS011;41244;49.242;9.060;2023-05-10T13:08:03;6.55;;;2.75;;
55362;SDS011;41244;49.242;9.060;2023-05-10T13:10:29;3.20;;;2.40;;
55362;SDS011;41244;49.242;9.060;2023-05-10T13:12:56;4.50;;;2.45;;
55362;SDS011;41244;49.242;9.060;2023-05-10T13:15:22;4.78;;;2.50;;
55362;SDS011;41244;49.242;9.060;2023-05-10T13:17:48;2.45;;;2.00;;
55362;SDS011;41244;49.242;9.060;2023-05-10T13:20:14;3.80;;;2.50;;
55362;SDS011;41244;49.242;9.060;2023-05-10T13:22:40;3.03;;;2.10;;
55362;SDS011;41244;49.242;9.060;2023-05-10T13:25:07;6.03;;;2.65;;
55362;SDS011;41244;49.242;9.060;2023-05-10T13:27:34;5.45;;;2.40;;
55362;SDS011;41244;49.242;9.060;2023-05-10T13:30:01;4.20;;;3.50;;
55362;SDS011;41244;49.242;9.060;2023-05-10T13:32:28;7.97;;;2.40;;
55362;SDS011;41244;49.242;9.060;2023-05-10T13:34:54;5.20;;;2.20;;
55362;SDS011;41244;49.242;9.060;2023-05-10T13:37:21;4.18;;;2.33;;
55362;SDS011;41244;49.242;9.060;2023-05-10T13:39:47;4.60;;;2.40;;
55362;SDS011;41244;49.242;9.060;2023-05-10T13:42:13;5.07;;;2.60;;
55362;SDS011;41244;49.242;9.060;2023-05-10T13:44:39;5.35;;;2.50;;
55362;SDS011;41244;49.242;9.060;2023-05-10T13:47:05;4.63;;;2.40;;
55362;SDS011;41244;49.242;9.060;2023-05-10T13:49:31;3.08;;;2.50;;
55362;SDS011;41244;49.242;9.060;2023-05-10T13:51:56;4.18;;;2.60;;
55362;SDS011;41244;49.242;9.060;2023-05-10T13:54:23;6.45;;;2.50;;
55362;SDS011;41244;49.242;9.060;2023-05-10T13:56:49;5.97;;;2.55;;
55362;SDS011;41244;49.242;9.060;2023-05-10T13:59:15;3.45;;;2.50;;
55362;SDS011;41244;49.242;9.060;2023-05-10T14:01:41;3.45;;;2.38;;
55362;SDS011;41244;49.242;9.060;2023-05-10T14:04:07;5.82;;;2.30;;
55362;SDS011;41244;49.242;9.060;2023-05-10T14:06:37;4.65;;;2.30;;
55362;SDS011;41244;49.242;9.060;2023-05-10T14:09:03;5.10;;;3.10;;
55362;SDS011;41244;49.242;9.060;2023-05-10T14:11:29;5.13;;;4.55;;
55362;SDS011;41244;49.242;9.060;2023-05-10T14:13:55;5.13;;;3.53;;
55362;SDS011;41244;49.242;9.060;2023-05-10T14:16:20;2.88;;;2.53;;
55362;SDS011;41244;49.242;9.060;2023-05-10T14:18:46;2.20;;;2.10;;
55362;SDS011;41244;49.242;9.060;2023-05-10T14:21:12;3.35;;;2.40;;
55362;SDS011;41244;49.242;9.060;2023-05-10T14:23:38;3.78;;;2.45;;
55362;SDS011;41244;49.242;9.060;2023-05-10T14:26:04;6.70;;;2.20;;
55362;SDS011;41244;49.242;9.060;2023-05-10T14:28:30;2.80;;;2.30;;
55362;SDS011;41244;49.242;9.060;2023-05-10T14:30:56;2.35;;;2.20;;
55362;SDS011;41244;49.242;9.060;2023-05-10T14:33:21;2.88;;;2.28;;
55362;SDS011;41244;49.242;9.060;2023-05-10T14:35:47;4.05;;;2.33;;
55362;SDS011;41244;49.242;9.060;2023-05-10T14:38:13;3.92;;;2.33;;
55362;SDS011;41244;49.242;9.060;2023-05-10T14:40:40;4.25;;;2.25;;
55362;SDS011;41244;49.242;9.060;2023-05-10T14:43:05;3.15;;;2.35;;
55362;SDS011;41244;49.242;9.060;2023-05-10T14:45:31;2.63;;;2.20;;
55362;SDS011;41244;49.242;9.060;2023-05-10T14:47:57;5.38;;;2.38;;
55362;SDS011;41244;49.242;9.060;2023-05-10T14:50:23;2.80;;;2.60;;
55362;SDS011;41244;49.242;9.060;2023-05-10T14:52:49;2.45;;;2.25;;
55362;SDS011;41244;49.242;9.060;2023-05-10T14:55:15;3.97;;;2.95;;
55362;SDS011;41244;49.242;9.060;2023-05-10T14:57:42;4.05;;;2.30;;
55362;SDS011;41244;49.242;9.060;2023-05-10T15:00:09;3.60;;;2.30;;
55362;SDS011;41244;49.242;9.060;2023-05-10T15:02:36;5.25;;;2.47;;
55362;SDS011;41244;49.242;9.060;2023-05-10T15:05:02;2.88;;;2.50;;
55362;SDS011;41244;49.242;9.060;2023-05-10T15:07:27;3.10;;;2.40;;
55362;SDS011;41244;49.242;9.060;2023-05-10T15:09:53;3.10;;;2.38;;
55362;SDS011;41244;49.242;9.060;2023-05-10T15:12:19;3.28;;;2.10;;
55362;SDS011;41244;49.242;9.060;2023-05-10T15:14:45;2.40;;;2.20;;
55362;SDS011;41244;49.242;9.060;2023-05-10T15:17:11;4.60;;;2.63;;
55362;SDS011;41244;49.242;9.060;2023-05-10T15:19:37;4.53;;;2.25;;
55362;SDS011;41244;49.242;9.060;2023-05-10T15:22:04;2.33;;;2.13;;
55362;SDS011;41244;49.242;9.060;2023-05-10T15:24:30;3.33;;;2.13;;
55362;SDS011;41244;49.242;9.060;2023-05-10T15:26:56;4.78;;;2.65;;
55362;SDS011;41244;49.242;9.060;2023-05-10T15:29:22;3.25;;;2.38;;